sensor_id;sensor_type;location;lat;lon;timestamp;temperature;humidity
59893;DHT22;45758;51.052;3.740;2022-10-13T00:01:40;14.70;99.90
59893;DHT22;45758;51.052;3.740;2022-10-13T00:04:06;14.60;99.90
59893;DHT22;45758;51.052;3.740;2022-10-13T00:06:32;14.60;99.90
59893;DHT22;45758;51.052;3.740;2022-10-13T00:08:58;14.70;99.90
59893;DHT22;45758;51.052;3.740;2022-10-13T00:11:28;14.60;99.90
59893;DHT22;45758;51.052;3.740;2022-10-13T00:14:00;14.50;99.90
59893;DHT22;45758;51.052;3.740;2022-10-13T00:16:26;14.50;99.90
59893;DHT22;45758;51.052;3.740;2022-10-13T00:18:52;14.50;99.90
59893;DHT22;45758;51.052;3.740;2022-10-13T00:21:21;14.40;99.90
59893;DHT22;45758;51.052;3.740;2022-10-13T00:23:48;14.50;99.90
59893;DHT22;45758;51.052;3.740;2022-10-13T00:26:15;14.50;99.90
59893;DHT22;45758;51.052;3.740;2022-10-13T00:28:41;14.40;99.90
59893;DHT22;45758;51.052;3.740;2022-10-13T00:31:21;14.50;99.90
59893;DHT22;45758;51.052;3.740;2022-10-13T00:33:48;14.50;99.90
59893;DHT22;45758;51.052;3.740;2022-10-13T00:36:14;14.40;99.90
59893;DHT22;45758;51.052;3.740;2022-10-13T00:38:40;14.40;99.90
59893;DHT22;45758;51.052;3.740;2022-10-13T00:41:06;14.40;99.90
59893;DHT22;45758;51.052;3.740;2022-10-13T00:44:01;14.30;99.90
59893;DHT22;45758;51.052;3.740;2022-10-13T00:46:30;14.40;99.90
59893;DHT22;45758;51.052;3.740;2022-10-13T00:49:14;14.30;99.90
59893;DHT22;45758;51.052;3.740;2022-10-13T00:51:44;14.30;99.90
59893;DHT22;45758;51.052;3.740;2022-10-13T00:54:14;14.40;99.90
59893;DHT22;45758;51.052;3.740;2022-10-13T00:56:41;14.40;99.90
59893;DHT22;45758;51.052;3.740;2022-10-13T00:59:12;14.30;99.90
59893;DHT22;45758;51.052;3.740;2022-10-13T01:01:39;14.30;99.90
59893;DHT22;45758;51.052;3.740;2022-10-13T01:04:05;14.50;99.90
59893;DHT22;45758;51.052;3.740;2022-10-13T01:06:31;14.60;99.90
59893;DHT22;45758;51.052;3.740;2022-10-13T01:08:57;14.50;99.90
59893;DHT22;45758;51.052;3.740;2022-10-13T01:11:36;14.40;99.90
59893;DHT22;45758;51.052;3.740;2022-10-13T01:17:01;14.50;99.90
59893;DHT22;45758;51.052;3.740;2022-10-13T01:28:04;14.20;99.90
59893;DHT22;45758;51.052;3.740;2022-10-13T01:30:42;14.30;99.90
59893;DHT22;45758;51.052;3.740;2022-10-13T01:36:24;14.30;99.90
59893;DHT22;45758;51.052;3.740;2022-10-13T01:41:30;14.30;99.90
59893;DHT22;45758;51.052;3.740;2022-10-13T01:44:06;14.30;99.90
59893;DHT22;45758;51.052;3.740;2022-10-13T01:46:36;14.20;99.90
59893;DHT22;45758;51.052;3.740;2022-10-13T01:49:06;14.20;99.90
59893;DHT22;45758;51.052;3.740;2022-10-13T01:51:34;14.20;99.90
59893;DHT22;45758;51.052;3.740;2022-10-13T01:54:00;14.20;99.90
59893;DHT22;45758;51.052;3.740;2022-10-13T01:56:26;14.20;99.90
59893;DHT22;45758;51.052;3.740;2022-10-13T01:58:54;14.20;99.90
59893;DHT22;45758;51.052;3.740;2022-10-13T02:02:06;14.10;99.90
59893;DHT22;45758;51.052;3.740;2022-10-13T02:04:56;14.30;99.90
59893;DHT22;45758;51.052;3.740;2022-10-13T02:07:37;14.20;99.90
59893;DHT22;45758;51.052;3.740;2022-10-13T02:10:25;14.20;99.90
59893;DHT22;45758;51.052;3.740;2022-10-13T02:13:03;14.20;99.90
59893;DHT22;45758;51.052;3.740;2022-10-13T02:15:46;14.20;99.90
59893;DHT22;45758;51.052;3.740;2022-10-13T02:18:17;14.30;99.90
59893;DHT22;45758;51.052;3.740;2022-10-13T02:20:44;14.20;99.90
59893;DHT22;45758;51.052;3.740;2022-10-13T02:23:13;14.30;99.90
59893;DHT22;45758;51.052;3.740;2022-10-13T02:25:40;14.20;99.90
59893;DHT22;45758;51.052;3.740;2022-10-13T02:28:07;14.20;99.90
59893;DHT22;45758;51.052;3.740;2022-10-13T02:30:34;14.20;99.90
59893;DHT22;45758;51.052;3.740;2022-10-13T02:33:01;14.10;99.90
59893;DHT22;45758;51.052;3.740;2022-10-13T02:35:27;14.00;99.90
59893;DHT22;45758;51.052;3.740;2022-10-13T02:37:54;14.20;99.90
59893;DHT22;45758;51.052;3.740;2022-10-13T02:40:20;14.20;99.90
59893;DHT22;45758;51.052;3.740;2022-10-13T02:42:45;14.20;99.90
59893;DHT22;45758;51.052;3.740;2022-10-13T02:45:11;14.20;99.90
59893;DHT22;45758;51.052;3.740;2022-10-13T02:47:37;14.20;99.90
59893;DHT22;45758;51.052;3.740;2022-10-13T02:50:04;14.20;99.90
59893;DHT22;45758;51.052;3.740;2022-10-13T02:52:30;14.20;99.90
59893;DHT22;45758;51.052;3.740;2022-10-13T02:54:56;14.30;99.90
59893;DHT22;45758;51.052;3.740;2022-10-13T02:57:22;14.30;99.90
59893;DHT22;45758;51.052;3.740;2022-10-13T02:59:48;14.30;99.90
59893;DHT22;45758;51.052;3.740;2022-10-13T03:02:13;14.30;99.90
59893;DHT22;45758;51.052;3.740;2022-10-13T03:04:39;14.20;99.90
59893;DHT22;45758;51.052;3.740;2022-10-13T03:07:05;14.20;99.90
59893;DHT22;45758;51.052;3.740;2022-10-13T03:09:31;14.30;99.90
59893;DHT22;45758;51.052;3.740;2022-10-13T03:11:57;14.30;99.90
59893;DHT22;45758;51.052;3.740;2022-10-13T03:14:23;14.20;99.90
59893;DHT22;45758;51.052;3.740;2022-10-13T03:16:49;14.20;99.90
59893;DHT22;45758;51.052;3.740;2022-10-13T03:19:14;14.20;99.90
59893;DHT22;45758;51.052;3.740;2022-10-13T03:21:40;14.30;99.90
59893;DHT22;45758;51.052;3.740;2022-10-13T03:24:07;14.40;99.90
59893;DHT22;45758;51.052;3.740;2022-10-13T03:26:33;14.40;99.90
59893;DHT22;45758;51.052;3.740;2022-10-13T03:28:59;14.40;99.90
59893;DHT22;45758;51.052;3.740;2022-10-13T03:31:25;14.40;99.90
59893;DHT22;45758;51.052;3.740;2022-10-13T03:33:51;14.30;99.90
59893;DHT22;45758;51.052;3.740;2022-10-13T03:36:17;14.40;99.90
59893;DHT22;45758;51.052;3.740;2022-10-13T03:38:43;14.40;99.90
59893;DHT22;45758;51.052;3.740;2022-10-13T03:41:14;14.40;99.90
59893;DHT22;45758;51.052;3.740;2022-10-13T03:43:42;14.40;99.90
59893;DHT22;45758;51.052;3.740;2022-10-13T03:46:10;14.30;99.90
59893;DHT22;45758;51.052;3.740;2022-10-13T03:48:36;14.50;99.90
59893;DHT22;45758;51.052;3.740;2022-10-13T03:51:12;14.50;99.90
59893;DHT22;45758;51.052;3.740;2022-10-13T03:53:38;14.40;99.90
59893;DHT22;45758;51.052;3.740;2022-10-13T03:56:05;14.50;99.90
59893;DHT22;45758;51.052;3.740;2022-10-13T03:58:32;14.40;99.90
59893;DHT22;45758;51.052;3.740;2022-10-13T04:01:03;14.40;99.90
59893;DHT22;45758;51.052;3.740;2022-10-13T04:03:30;14.40;99.90
59893;DHT22;45758;51.052;3.740;2022-10-13T04:06:00;14.30;99.90
59893;DHT22;45758;51.052;3.740;2022-10-13T04:08:27;14.30;99.90
59893;DHT22;45758;51.052;3.740;2022-10-13T04:11:04;14.30;99.90
59893;DHT22;45758;51.052;3.740;2022-10-13T04:13:31;14.30;99.90
59893;DHT22;45758;51.052;3.740;2022-10-13T04:16:06;14.30;99.90
59893;DHT22;45758;51.052;3.740;2022-10-13T04:18:35;14.40;99.90
59893;DHT22;45758;51.052;3.740;2022-10-13T04:21:01;14.30;99.90
59893;DHT22;45758;51.052;3.740;2022-10-13T04:23:26;14.30;99.90
59893;DHT22;45758;51.052;3.740;2022-10-13T04:25:52;14.40;99.90
59893;DHT22;45758;51.052;3.740;2022-10-13T04:28:18;14.50;99.90
59893;DHT22;45758;51.052;3.740;2022-10-13T04:30:44;14.50;99.90
59893;DHT22;45758;51.052;3.740;2022-10-13T04:33:10;14.40;99.90
59893;DHT22;45758;51.052;3.740;2022-10-13T04:35:42;14.40;99.90
59893;DHT22;45758;51.052;3.740;2022-10-13T04:38:08;14.50;99.90
59893;DHT22;45758;51.052;3.740;2022-10-13T04:40:34;14.50;99.90
59893;DHT22;45758;51.052;3.740;2022-10-13T04:43:00;14.50;99.90
59893;DHT22;45758;51.052;3.740;2022-10-13T04:45:26;14.50;99.90
59893;DHT22;45758;51.052;3.740;2022-10-13T04:47:52;14.40;99.90
59893;DHT22;45758;51.052;3.740;2022-10-13T04:50:18;14.50;99.90
59893;DHT22;45758;51.052;3.740;2022-10-13T04:52:44;14.50;99.90
59893;DHT22;45758;51.052;3.740;2022-10-13T04:55:10;14.50;99.90
59893;DHT22;45758;51.052;3.740;2022-10-13T04:57:36;14.60;99.90
59893;DHT22;45758;51.052;3.740;2022-10-13T05:00:03;14.50;99.90
59893;DHT22;45758;51.052;3.740;2022-10-13T05:02:33;14.40;99.90
59893;DHT22;45758;51.052;3.740;2022-10-13T05:04:59;14.50;99.90
59893;DHT22;45758;51.052;3.740;2022-10-13T05:07:25;14.50;99.90
59893;DHT22;45758;51.052;3.740;2022-10-13T05:09:51;14.40;99.90
59893;DHT22;45758;51.052;3.740;2022-10-13T05:12:16;14.50;99.90
59893;DHT22;45758;51.052;3.740;2022-10-13T05:14:46;14.40;99.90
59893;DHT22;45758;51.052;3.740;2022-10-13T05:17:12;14.50;99.90
59893;DHT22;45758;51.052;3.740;2022-10-13T05:19:37;14.60;99.90
59893;DHT22;45758;51.052;3.740;2022-10-13T05:22:03;14.50;99.90
59893;DHT22;45758;51.052;3.740;2022-10-13T05:24:29;14.50;99.90
59893;DHT22;45758;51.052;3.740;2022-10-13T05:27:08;14.40;99.90
59893;DHT22;45758;51.052;3.740;2022-10-13T05:29:34;14.40;99.90
59893;DHT22;45758;51.052;3.740;2022-10-13T05:32:00;14.40;99.90
59893;DHT22;45758;51.052;3.740;2022-10-13T05:34:26;14.40;99.90
59893;DHT22;45758;51.052;3.740;2022-10-13T05:36:52;14.40;99.90
59893;DHT22;45758;51.052;3.740;2022-10-13T05:39:18;14.40;99.90
59893;DHT22;45758;51.052;3.740;2022-10-13T05:41:44;14.40;99.90
59893;DHT22;45758;51.052;3.740;2022-10-13T05:44:10;14.30;99.90
59893;DHT22;45758;51.052;3.740;2022-10-13T05:46:37;14.30;99.90
59893;DHT22;45758;51.052;3.740;2022-10-13T05:49:03;14.30;99.90
59893;DHT22;45758;51.052;3.740;2022-10-13T05:51:37;14.40;99.90
59893;DHT22;45758;51.052;3.740;2022-10-13T05:54:24;14.40;99.90
59893;DHT22;45758;51.052;3.740;2022-10-13T05:57:02;14.40;99.90
59893;DHT22;45758;51.052;3.740;2022-10-13T05:59:32;14.40;99.90
59893;DHT22;45758;51.052;3.740;2022-10-13T06:02:00;14.50;99.90
59893;DHT22;45758;51.052;3.740;2022-10-13T06:04:33;14.40;99.90
59893;DHT22;45758;51.052;3.740;2022-10-13T06:07:00;14.40;99.90
59893;DHT22;45758;51.052;3.740;2022-10-13T06:09:32;14.40;99.90
59893;DHT22;45758;51.052;3.740;2022-10-13T06:11:59;14.40;99.90
59893;DHT22;45758;51.052;3.740;2022-10-13T06:14:25;14.30;99.90
59893;DHT22;45758;51.052;3.740;2022-10-13T06:16:51;14.30;99.90
59893;DHT22;45758;51.052;3.740;2022-10-13T06:19:17;14.40;99.90
59893;DHT22;45758;51.052;3.740;2022-10-13T06:21:43;14.30;99.90
59893;DHT22;45758;51.052;3.740;2022-10-13T06:24:09;14.30;99.90
59893;DHT22;45758;51.052;3.740;2022-10-13T06:26:34;14.30;99.90
59893;DHT22;45758;51.052;3.740;2022-10-13T06:29:00;14.30;99.90
59893;DHT22;45758;51.052;3.740;2022-10-13T06:31:26;14.30;99.90
59893;DHT22;45758;51.052;3.740;2022-10-13T06:33:52;14.30;99.90
59893;DHT22;45758;51.052;3.740;2022-10-13T06:36:21;14.30;99.90
59893;DHT22;45758;51.052;3.740;2022-10-13T06:38:47;14.30;99.90
59893;DHT22;45758;51.052;3.740;2022-10-13T06:41:13;14.30;99.90
59893;DHT22;45758;51.052;3.740;2022-10-13T06:43:39;14.30;99.90
59893;DHT22;45758;51.052;3.740;2022-10-13T06:46:06;14.50;99.90
59893;DHT22;45758;51.052;3.740;2022-10-13T06:48:33;14.50;99.90
59893;DHT22;45758;51.052;3.740;2022-10-13T06:51:08;14.40;99.90
59893;DHT22;45758;51.052;3.740;2022-10-13T06:53:34;14.40;99.90
59893;DHT22;45758;51.052;3.740;2022-10-13T06:56:09;14.40;99.90
59893;DHT22;45758;51.052;3.740;2022-10-13T06:58:36;14.40;99.90
59893;DHT22;45758;51.052;3.740;2022-10-13T07:01:05;14.40;99.90
59893;DHT22;45758;51.052;3.740;2022-10-13T07:03:32;14.40;99.90
59893;DHT22;45758;51.052;3.740;2022-10-13T07:06:03;14.40;99.90
59893;DHT22;45758;51.052;3.740;2022-10-13T07:08:30;14.40;99.90
59893;DHT22;45758;51.052;3.740;2022-10-13T07:10:56;14.50;99.90
59893;DHT22;45758;51.052;3.740;2022-10-13T07:13:23;14.50;99.90
59893;DHT22;45758;51.052;3.740;2022-10-13T07:15:48;14.50;99.90
59893;DHT22;45758;51.052;3.740;2022-10-13T07:18:14;14.70;99.90
59893;DHT22;45758;51.052;3.740;2022-10-13T07:20:40;14.80;99.90
59893;DHT22;45758;51.052;3.740;2022-10-13T07:23:06;14.80;99.90
59893;DHT22;45758;51.052;3.740;2022-10-13T07:25:32;14.90;99.90
59893;DHT22;45758;51.052;3.740;2022-10-13T07:27:58;14.90;99.90
59893;DHT22;45758;51.052;3.740;2022-10-13T07:30:24;15.00;99.90
59893;DHT22;45758;51.052;3.740;2022-10-13T07:32:50;15.00;99.90
59893;DHT22;45758;51.052;3.740;2022-10-13T07:35:17;15.10;99.90
59893;DHT22;45758;51.052;3.740;2022-10-13T07:37:46;15.20;99.90
59893;DHT22;45758;51.052;3.740;2022-10-13T07:40:12;15.20;99.90
59893;DHT22;45758;51.052;3.740;2022-10-13T07:42:38;15.20;99.90
59893;DHT22;45758;51.052;3.740;2022-10-13T07:45:04;15.30;99.90
59893;DHT22;45758;51.052;3.740;2022-10-13T07:47:30;15.30;99.90
59893;DHT22;45758;51.052;3.740;2022-10-13T07:49:55;15.20;99.90
59893;DHT22;45758;51.052;3.740;2022-10-13T07:52:24;15.20;99.90
59893;DHT22;45758;51.052;3.740;2022-10-13T07:54:50;15.30;99.90
59893;DHT22;45758;51.052;3.740;2022-10-13T07:57:16;15.30;99.90
59893;DHT22;45758;51.052;3.740;2022-10-13T07:59:42;15.30;99.90
59893;DHT22;45758;51.052;3.740;2022-10-13T08:02:08;15.40;99.90
59893;DHT22;45758;51.052;3.740;2022-10-13T08:04:35;15.70;99.90
59893;DHT22;45758;51.052;3.740;2022-10-13T08:07:03;15.70;99.90
59893;DHT22;45758;51.052;3.740;2022-10-13T08:09:30;15.80;99.90
59893;DHT22;45758;51.052;3.740;2022-10-13T08:11:56;15.90;99.90
59893;DHT22;45758;51.052;3.740;2022-10-13T08:14:21;15.80;99.90
59893;DHT22;45758;51.052;3.740;2022-10-13T08:16:48;15.90;99.90
59893;DHT22;45758;51.052;3.740;2022-10-13T08:19:15;15.90;99.90
59893;DHT22;45758;51.052;3.740;2022-10-13T08:21:41;15.90;99.90
59893;DHT22;45758;51.052;3.740;2022-10-13T08:24:15;16.00;99.90
59893;DHT22;45758;51.052;3.740;2022-10-13T08:26:44;16.10;99.90
59893;DHT22;45758;51.052;3.740;2022-10-13T08:29:10;16.20;99.90
59893;DHT22;45758;51.052;3.740;2022-10-13T08:31:37;16.20;99.90
59893;DHT22;45758;51.052;3.740;2022-10-13T08:34:04;16.10;99.90
59893;DHT22;45758;51.052;3.740;2022-10-13T08:36:30;16.10;99.90
59893;DHT22;45758;51.052;3.740;2022-10-13T08:38:56;16.10;99.90
59893;DHT22;45758;51.052;3.740;2022-10-13T08:41:29;16.10;99.90
59893;DHT22;45758;51.052;3.740;2022-10-13T08:44:04;16.00;99.90
59893;DHT22;45758;51.052;3.740;2022-10-13T08:46:39;16.10;99.90
59893;DHT22;45758;51.052;3.740;2022-10-13T08:49:08;16.10;99.90
59893;DHT22;45758;51.052;3.740;2022-10-13T08:51:34;16.20;99.90
59893;DHT22;45758;51.052;3.740;2022-10-13T08:54:00;16.20;99.90
59893;DHT22;45758;51.052;3.740;2022-10-13T08:56:38;16.20;99.90
59893;DHT22;45758;51.052;3.740;2022-10-13T08:59:04;16.30;99.90
59893;DHT22;45758;51.052;3.740;2022-10-13T09:01:33;16.20;99.90
59893;DHT22;45758;51.052;3.740;2022-10-13T09:09:35;16.20;99.90
59893;DHT22;45758;51.052;3.740;2022-10-13T09:12:02;16.00;99.90
59893;DHT22;45758;51.052;3.740;2022-10-13T09:14:37;16.00;99.90
59893;DHT22;45758;51.052;3.740;2022-10-13T09:17:23;16.10;99.90
59893;DHT22;45758;51.052;3.740;2022-10-13T09:28:08;16.30;99.90
59893;DHT22;45758;51.052;3.740;2022-10-13T09:30:36;16.40;99.90
59893;DHT22;45758;51.052;3.740;2022-10-13T09:38:23;16.10;99.90
59893;DHT22;45758;51.052;3.740;2022-10-13T09:43:56;16.30;99.90
59893;DHT22;45758;51.052;3.740;2022-10-13T09:51:50;16.40;99.90
59893;DHT22;45758;51.052;3.740;2022-10-13T09:54:26;16.60;99.90
59893;DHT22;45758;51.052;3.740;2022-10-13T09:56:56;16.70;99.90
59893;DHT22;45758;51.052;3.740;2022-10-13T09:59:32;16.80;99.90
59893;DHT22;45758;51.052;3.740;2022-10-13T10:02:23;16.80;99.90
59893;DHT22;45758;51.052;3.740;2022-10-13T10:04:54;16.80;99.90
59893;DHT22;45758;51.052;3.740;2022-10-13T10:07:26;16.80;99.90
59893;DHT22;45758;51.052;3.740;2022-10-13T10:09:56;16.80;99.90
59893;DHT22;45758;51.052;3.740;2022-10-13T10:12:28;16.90;99.90
59893;DHT22;45758;51.052;3.740;2022-10-13T10:14:54;17.00;99.90
59893;DHT22;45758;51.052;3.740;2022-10-13T10:17:41;17.10;99.90
59893;DHT22;45758;51.052;3.740;2022-10-13T10:31:10;17.20;99.90
59893;DHT22;45758;51.052;3.740;2022-10-13T10:36:21;17.10;99.90
59893;DHT22;45758;51.052;3.740;2022-10-13T10:39:02;17.30;99.90
59893;DHT22;45758;51.052;3.740;2022-10-13T10:41:49;17.20;99.90
59893;DHT22;45758;51.052;3.740;2022-10-13T10:44:39;17.20;99.90
59893;DHT22;45758;51.052;3.740;2022-10-13T10:47:19;17.30;99.90
59893;DHT22;45758;51.052;3.740;2022-10-13T10:49:45;17.20;99.90
59893;DHT22;45758;51.052;3.740;2022-10-13T10:52:22;17.30;99.90
59893;DHT22;45758;51.052;3.740;2022-10-13T10:54:54;17.30;99.90
59893;DHT22;45758;51.052;3.740;2022-10-13T11:00:14;17.20;99.90
59893;DHT22;45758;51.052;3.740;2022-10-13T11:05:18;17.30;99.90
59893;DHT22;45758;51.052;3.740;2022-10-13T11:10:19;17.20;99.90
59893;DHT22;45758;51.052;3.740;2022-10-13T11:15:24;17.10;99.90
59893;DHT22;45758;51.052;3.740;2022-10-13T11:17:50;17.20;99.90
59893;DHT22;45758;51.052;3.740;2022-10-13T11:25:40;17.30;99.90
59893;DHT22;45758;51.052;3.740;2022-10-13T11:30:52;17.30;99.90
59893;DHT22;45758;51.052;3.740;2022-10-13T11:33:51;17.30;99.90
59893;DHT22;45758;51.052;3.740;2022-10-13T11:36:38;17.40;99.90
59893;DHT22;45758;51.052;3.740;2022-10-13T11:47:58;17.70;99.90
59893;DHT22;45758;51.052;3.740;2022-10-13T11:53:16;17.80;99.90
59893;DHT22;45758;51.052;3.740;2022-10-13T11:55:51;17.80;99.90
59893;DHT22;45758;51.052;3.740;2022-10-13T12:01:06;18.00;99.90
59893;DHT22;45758;51.052;3.740;2022-10-13T12:03:40;18.10;99.90
59893;DHT22;45758;51.052;3.740;2022-10-13T12:08:43;18.10;99.90
59893;DHT22;45758;51.052;3.740;2022-10-13T12:11:54;18.20;99.90
59893;DHT22;45758;51.052;3.740;2022-10-13T12:14:28;18.20;99.90
59893;DHT22;45758;51.052;3.740;2022-10-13T12:16:56;18.10;99.90
59893;DHT22;45758;51.052;3.740;2022-10-13T12:19:24;18.10;99.90
59893;DHT22;45758;51.052;3.740;2022-10-13T12:21:53;18.10;99.90
59893;DHT22;45758;51.052;3.740;2022-10-13T12:24:26;18.10;99.90
59893;DHT22;45758;51.052;3.740;2022-10-13T12:26:52;18.10;99.90
59893;DHT22;45758;51.052;3.740;2022-10-13T12:29:24;18.40;99.90
59893;DHT22;45758;51.052;3.740;2022-10-13T12:31:51;18.50;99.90
59893;DHT22;45758;51.052;3.740;2022-10-13T12:34:30;18.60;99.90
59893;DHT22;45758;51.052;3.740;2022-10-13T12:37:10;18.50;99.90
59893;DHT22;45758;51.052;3.740;2022-10-13T12:39:38;18.50;99.90
59893;DHT22;45758;51.052;3.740;2022-10-13T12:42:06;18.50;99.90
59893;DHT22;45758;51.052;3.740;2022-10-13T12:44:32;18.70;99.90
59893;DHT22;45758;51.052;3.740;2022-10-13T12:47:00;18.60;99.90
59893;DHT22;45758;51.052;3.740;2022-10-13T12:49:33;18.50;99.90
59893;DHT22;45758;51.052;3.740;2022-10-13T12:52:06;18.40;99.90
59893;DHT22;45758;51.052;3.740;2022-10-13T12:54:49;18.30;99.90
59893;DHT22;45758;51.052;3.740;2022-10-13T12:57:25;18.00;99.90
59893;DHT22;45758;51.052;3.740;2022-10-13T13:00:00;17.90;99.90
59893;DHT22;45758;51.052;3.740;2022-10-13T13:02:29;17.80;99.90
59893;DHT22;45758;51.052;3.740;2022-10-13T13:04:55;17.70;99.90
59893;DHT22;45758;51.052;3.740;2022-10-13T13:07:33;17.70;99.90
59893;DHT22;45758;51.052;3.740;2022-10-13T13:12:37;17.70;99.90
59893;DHT22;45758;51.052;3.740;2022-10-13T13:15:19;17.60;99.90
59893;DHT22;45758;51.052;3.740;2022-10-13T13:17:46;17.70;99.90
59893;DHT22;45758;51.052;3.740;2022-10-13T13:20:44;17.60;99.90
59893;DHT22;45758;51.052;3.740;2022-10-13T13:23:09;17.50;99.90
59893;DHT22;45758;51.052;3.740;2022-10-13T13:25:36;17.40;99.90
59893;DHT22;45758;51.052;3.740;2022-10-13T13:28:05;17.40;99.90
59893;DHT22;45758;51.052;3.740;2022-10-13T13:30:34;17.20;99.90
59893;DHT22;45758;51.052;3.740;2022-10-13T13:33:00;17.30;99.90
59893;DHT22;45758;51.052;3.740;2022-10-13T13:35:26;17.30;99.90
59893;DHT22;45758;51.052;3.740;2022-10-13T13:37:52;17.20;99.90
59893;DHT22;45758;51.052;3.740;2022-10-13T13:40:23;17.20;99.90
59893;DHT22;45758;51.052;3.740;2022-10-13T13:42:52;17.20;99.90
59893;DHT22;45758;51.052;3.740;2022-10-13T13:45:20;17.10;99.90
59893;DHT22;45758;51.052;3.740;2022-10-13T13:47:47;17.10;99.90
59893;DHT22;45758;51.052;3.740;2022-10-13T13:50:22;17.10;99.90
59893;DHT22;45758;51.052;3.740;2022-10-13T13:52:49;17.00;99.90
59893;DHT22;45758;51.052;3.740;2022-10-13T13:55:15;17.00;99.90
59893;DHT22;45758;51.052;3.740;2022-10-13T13:57:41;16.90;99.90
59893;DHT22;45758;51.052;3.740;2022-10-13T14:00:10;16.80;99.90
59893;DHT22;45758;51.052;3.740;2022-10-13T14:02:36;16.80;99.90
59893;DHT22;45758;51.052;3.740;2022-10-13T14:05:02;16.80;99.90
59893;DHT22;45758;51.052;3.740;2022-10-13T14:07:29;16.70;99.90
59893;DHT22;45758;51.052;3.740;2022-10-13T14:09:54;16.60;99.90
59893;DHT22;45758;51.052;3.740;2022-10-13T14:12:20;16.50;99.90
59893;DHT22;45758;51.052;3.740;2022-10-13T14:14:46;16.60;99.90
59893;DHT22;45758;51.052;3.740;2022-10-13T14:17:12;16.70;99.90
59893;DHT22;45758;51.052;3.740;2022-10-13T14:19:37;16.80;99.90
59893;DHT22;45758;51.052;3.740;2022-10-13T14:22:03;16.90;99.90
59893;DHT22;45758;51.052;3.740;2022-10-13T14:24:29;17.00;99.90
59893;DHT22;45758;51.052;3.740;2022-10-13T14:26:57;16.90;99.90
59893;DHT22;45758;51.052;3.740;2022-10-13T14:29:23;16.80;99.90
59893;DHT22;45758;51.052;3.740;2022-10-13T14:31:49;16.90;99.90
59893;DHT22;45758;51.052;3.740;2022-10-13T14:34:15;17.00;99.90
59893;DHT22;45758;51.052;3.740;2022-10-13T14:36:41;16.90;99.90
59893;DHT22;45758;51.052;3.740;2022-10-13T14:39:07;17.00;99.90
59893;DHT22;45758;51.052;3.740;2022-10-13T14:41:33;16.90;99.90
59893;DHT22;45758;51.052;3.740;2022-10-13T14:43:58;16.90;99.90
59893;DHT22;45758;51.052;3.740;2022-10-13T14:46:25;16.90;99.90
59893;DHT22;45758;51.052;3.740;2022-10-13T14:48:50;16.80;99.90
59893;DHT22;45758;51.052;3.740;2022-10-13T14:51:16;16.50;99.90
59893;DHT22;45758;51.052;3.740;2022-10-13T14:53:44;16.60;99.90
59893;DHT22;45758;51.052;3.740;2022-10-13T14:56:23;16.50;99.90
59893;DHT22;45758;51.052;3.740;2022-10-13T14:58:51;16.40;99.90
59893;DHT22;45758;51.052;3.740;2022-10-13T15:01:17;16.40;99.90
59893;DHT22;45758;51.052;3.740;2022-10-13T15:03:43;16.50;99.90
59893;DHT22;45758;51.052;3.740;2022-10-13T15:06:12;16.50;99.90
59893;DHT22;45758;51.052;3.740;2022-10-13T15:08:39;16.50;99.90
59893;DHT22;45758;51.052;3.740;2022-10-13T15:11:08;16.50;99.90
59893;DHT22;45758;51.052;3.740;2022-10-13T15:13:34;16.70;99.90
59893;DHT22;45758;51.052;3.740;2022-10-13T15:16:00;16.60;99.90
59893;DHT22;45758;51.052;3.740;2022-10-13T15:18:28;16.60;99.90
59893;DHT22;45758;51.052;3.740;2022-10-13T15:20:56;16.50;99.90
59893;DHT22;45758;51.052;3.740;2022-10-13T15:23:22;16.40;99.90
59893;DHT22;45758;51.052;3.740;2022-10-13T15:25:50;16.40;99.90
59893;DHT22;45758;51.052;3.740;2022-10-13T15:28:16;16.30;99.90
59893;DHT22;45758;51.052;3.740;2022-10-13T15:30:42;16.20;99.90
59893;DHT22;45758;51.052;3.740;2022-10-13T15:33:08;16.10;99.90
59893;DHT22;45758;51.052;3.740;2022-10-13T15:35:34;16.10;99.90
59893;DHT22;45758;51.052;3.740;2022-10-13T15:38:00;16.10;99.90
59893;DHT22;45758;51.052;3.740;2022-10-13T15:40:26;16.00;99.90
59893;DHT22;45758;51.052;3.740;2022-10-13T15:42:52;15.80;99.90
59893;DHT22;45758;51.052;3.740;2022-10-13T15:45:18;15.70;99.90
59893;DHT22;45758;51.052;3.740;2022-10-13T15:47:44;15.70;99.90
59893;DHT22;45758;51.052;3.740;2022-10-13T15:50:10;15.60;99.90
59893;DHT22;45758;51.052;3.740;2022-10-13T15:52:39;15.50;99.90
59893;DHT22;45758;51.052;3.740;2022-10-13T15:55:07;15.50;99.90
59893;DHT22;45758;51.052;3.740;2022-10-13T15:57:33;15.50;99.90
59893;DHT22;45758;51.052;3.740;2022-10-13T16:03:39;15.40;99.90
59893;DHT22;45758;51.052;3.740;2022-10-13T16:06:15;15.50;99.90
59893;DHT22;45758;51.052;3.740;2022-10-13T16:12:19;15.50;99.90
59893;DHT22;45758;51.052;3.740;2022-10-13T16:14:45;15.60;99.90
59893;DHT22;45758;51.052;3.740;2022-10-13T16:17:11;15.60;99.90
59893;DHT22;45758;51.052;3.740;2022-10-13T16:19:36;15.60;99.90
59893;DHT22;45758;51.052;3.740;2022-10-13T16:22:02;15.50;99.90
59893;DHT22;45758;51.052;3.740;2022-10-13T16:24:28;15.60;99.90
59893;DHT22;45758;51.052;3.740;2022-10-13T16:26:54;15.60;99.90
59893;DHT22;45758;51.052;3.740;2022-10-13T16:29:20;15.60;99.90
59893;DHT22;45758;51.052;3.740;2022-10-13T16:31:46;15.60;99.90
59893;DHT22;45758;51.052;3.740;2022-10-13T16:34:12;15.60;99.90
59893;DHT22;45758;51.052;3.740;2022-10-13T16:36:38;15.60;99.90
59893;DHT22;45758;51.052;3.740;2022-10-13T16:39:04;15.80;99.90
59893;DHT22;45758;51.052;3.740;2022-10-13T16:41:30;15.70;99.90
59893;DHT22;45758;51.052;3.740;2022-10-13T16:43:56;15.70;99.90
59893;DHT22;45758;51.052;3.740;2022-10-13T16:46:22;15.60;99.90
59893;DHT22;45758;51.052;3.740;2022-10-13T16:48:47;15.50;99.90
59893;DHT22;45758;51.052;3.740;2022-10-13T16:51:19;15.50;99.90
59893;DHT22;45758;51.052;3.740;2022-10-13T16:53:49;15.40;99.90
59893;DHT22;45758;51.052;3.740;2022-10-13T16:56:18;15.40;99.90
59893;DHT22;45758;51.052;3.740;2022-10-13T16:58:57;15.40;99.90
59893;DHT22;45758;51.052;3.740;2022-10-13T17:01:24;15.40;99.90
59893;DHT22;45758;51.052;3.740;2022-10-13T17:03:51;15.40;99.90
59893;DHT22;45758;51.052;3.740;2022-10-13T17:06:20;15.40;99.90
59893;DHT22;45758;51.052;3.740;2022-10-13T17:08:46;15.40;99.90
59893;DHT22;45758;51.052;3.740;2022-10-13T17:11:25;15.40;99.90
59893;DHT22;45758;51.052;3.740;2022-10-13T17:13:56;15.40;99.90
59893;DHT22;45758;51.052;3.740;2022-10-13T17:16:23;15.40;99.90
59893;DHT22;45758;51.052;3.740;2022-10-13T17:18:49;15.40;99.90
59893;DHT22;45758;51.052;3.740;2022-10-13T17:21:16;15.40;99.90
59893;DHT22;45758;51.052;3.740;2022-10-13T17:23:42;15.40;99.90
59893;DHT22;45758;51.052;3.740;2022-10-13T17:26:10;15.40;99.90